sensor_id;sensor_type;location;lat;lon;timestamp;temperature;humidity
25688;DHT22;17407;51.120;3.702;2024-01-11T00:02:22;0.70;99.90
25688;DHT22;17407;51.120;3.702;2024-01-11T00:04:48;0.70;99.90
25688;DHT22;17407;51.120;3.702;2024-01-11T00:07:13;0.60;99.90
25688;DHT22;17407;51.120;3.702;2024-01-11T00:09:41;0.60;99.90
25688;DHT22;17407;51.120;3.702;2024-01-11T00:12:07;0.60;99.90
25688;DHT22;17407;51.120;3.702;2024-01-11T00:14:33;0.60;99.90
25688;DHT22;17407;51.120;3.702;2024-01-11T00:16:58;0.50;99.90
25688;DHT22;17407;51.120;3.702;2024-01-11T00:19:24;0.60;99.90
25688;DHT22;17407;51.120;3.702;2024-01-11T00:21:49;0.50;99.90
25688;DHT22;17407;51.120;3.702;2024-01-11T00:24:15;0.60;99.90
25688;DHT22;17407;51.120;3.702;2024-01-11T00:26:41;0.60;99.90
25688;DHT22;17407;51.120;3.702;2024-01-11T00:29:07;0.60;99.90
25688;DHT22;17407;51.120;3.702;2024-01-11T00:31:33;0.50;99.90
25688;DHT22;17407;51.120;3.702;2024-01-11T00:33:59;0.50;99.90
25688;DHT22;17407;51.120;3.702;2024-01-11T00:36:24;0.50;99.90
25688;DHT22;17407;51.120;3.702;2024-01-11T00:38:50;0.50;99.90
25688;DHT22;17407;51.120;3.702;2024-01-11T00:41:16;0.50;99.90
25688;DHT22;17407;51.120;3.702;2024-01-11T00:43:41;0.50;99.90
25688;DHT22;17407;51.120;3.702;2024-01-11T00:46:07;0.50;99.90
25688;DHT22;17407;51.120;3.702;2024-01-11T00:48:33;0.50;99.90
25688;DHT22;17407;51.120;3.702;2024-01-11T00:50:59;0.50;99.90
25688;DHT22;17407;51.120;3.702;2024-01-11T00:53:24;0.50;99.90
25688;DHT22;17407;51.120;3.702;2024-01-11T00:55:55;0.50;99.90
25688;DHT22;17407;51.120;3.702;2024-01-11T00:58:21;0.50;99.90
25688;DHT22;17407;51.120;3.702;2024-01-11T01:00:46;0.60;99.90
25688;DHT22;17407;51.120;3.702;2024-01-11T01:03:12;0.40;99.90
25688;DHT22;17407;51.120;3.702;2024-01-11T01:05:37;0.40;99.90
25688;DHT22;17407;51.120;3.702;2024-01-11T01:08:03;0.40;99.90
25688;DHT22;17407;51.120;3.702;2024-01-11T01:10:29;0.40;99.90
25688;DHT22;17407;51.120;3.702;2024-01-11T01:12:54;0.40;99.90
25688;DHT22;17407;51.120;3.702;2024-01-11T01:15:20;0.40;99.90
25688;DHT22;17407;51.120;3.702;2024-01-11T01:17:46;0.40;99.90
25688;DHT22;17407;51.120;3.702;2024-01-11T01:20:11;0.40;99.90
25688;DHT22;17407;51.120;3.702;2024-01-11T01:22:37;0.40;99.90
25688;DHT22;17407;51.120;3.702;2024-01-11T01:25:03;0.40;99.90
25688;DHT22;17407;51.120;3.702;2024-01-11T01:27:29;0.40;99.90
25688;DHT22;17407;51.120;3.702;2024-01-11T01:29:55;0.40;99.90
25688;DHT22;17407;51.120;3.702;2024-01-11T01:32:20;0.30;99.90
25688;DHT22;17407;51.120;3.702;2024-01-11T01:34:46;0.40;99.90
25688;DHT22;17407;51.120;3.702;2024-01-11T01:37:11;0.30;99.90
25688;DHT22;17407;51.120;3.702;2024-01-11T01:39:38;0.30;99.90
25688;DHT22;17407;51.120;3.702;2024-01-11T01:42:04;0.30;99.90
25688;DHT22;17407;51.120;3.702;2024-01-11T01:44:30;0.30;99.90
25688;DHT22;17407;51.120;3.702;2024-01-11T01:46:56;0.30;99.90
25688;DHT22;17407;51.120;3.702;2024-01-11T01:49:22;0.30;99.90
25688;DHT22;17407;51.120;3.702;2024-01-11T01:51:49;0.30;99.90
25688;DHT22;17407;51.120;3.702;2024-01-11T01:54:16;0.30;99.90
25688;DHT22;17407;51.120;3.702;2024-01-11T01:56:42;0.30;99.90
25688;DHT22;17407;51.120;3.702;2024-01-11T01:59:08;0.30;99.90
25688;DHT22;17407;51.120;3.702;2024-01-11T02:01:36;0.20;99.90
25688;DHT22;17407;51.120;3.702;2024-01-11T02:04:01;0.30;99.90
25688;DHT22;17407;51.120;3.702;2024-01-11T02:06:29;0.30;99.90
25688;DHT22;17407;51.120;3.702;2024-01-11T02:08:59;0.20;99.90
25688;DHT22;17407;51.120;3.702;2024-01-11T02:11:26;0.20;99.90
25688;DHT22;17407;51.120;3.702;2024-01-11T02:13:53;0.20;99.90
25688;DHT22;17407;51.120;3.702;2024-01-11T02:16:19;0.20;99.90
25688;DHT22;17407;51.120;3.702;2024-01-11T02:18:44;0.20;99.90
25688;DHT22;17407;51.120;3.702;2024-01-11T02:21:11;0.30;99.90
25688;DHT22;17407;51.120;3.702;2024-01-11T02:23:43;0.20;99.90
25688;DHT22;17407;51.120;3.702;2024-01-11T02:26:14;0.20;99.90
25688;DHT22;17407;51.120;3.702;2024-01-11T02:28:44;0.20;99.90
25688;DHT22;17407;51.120;3.702;2024-01-11T02:31:10;0.10;99.90
25688;DHT22;17407;51.120;3.702;2024-01-11T02:33:36;0.20;99.90
25688;DHT22;17407;51.120;3.702;2024-01-11T02:36:02;0.10;99.90
25688;DHT22;17407;51.120;3.702;2024-01-11T02:38:28;0.10;99.90
25688;DHT22;17407;51.120;3.702;2024-01-11T02:40:55;0.10;99.90
25688;DHT22;17407;51.120;3.702;2024-01-11T02:43:21;0.10;99.90
25688;DHT22;17407;51.120;3.702;2024-01-11T02:45:46;0.10;99.90
25688;DHT22;17407;51.120;3.702;2024-01-11T02:48:12;0.10;99.90
25688;DHT22;17407;51.120;3.702;2024-01-11T02:50:37;0.10;99.90
25688;DHT22;17407;51.120;3.702;2024-01-11T02:53:03;0.10;99.90
25688;DHT22;17407;51.120;3.702;2024-01-11T02:55:29;0.10;99.90
25688;DHT22;17407;51.120;3.702;2024-01-11T02:57:54;0.10;99.90
25688;DHT22;17407;51.120;3.702;2024-01-11T03:00:20;0.10;99.90
25688;DHT22;17407;51.120;3.702;2024-01-11T03:02:46;0.10;99.90
25688;DHT22;17407;51.120;3.702;2024-01-11T03:05:11;0.10;99.90
25688;DHT22;17407;51.120;3.702;2024-01-11T03:07:37;0.10;99.90
25688;DHT22;17407;51.120;3.702;2024-01-11T03:10:03;0.10;99.90
25688;DHT22;17407;51.120;3.702;2024-01-11T03:12:28;0.00;99.90
25688;DHT22;17407;51.120;3.702;2024-01-11T03:14:54;0.00;99.90
25688;DHT22;17407;51.120;3.702;2024-01-11T03:17:19;0.00;99.90
25688;DHT22;17407;51.120;3.702;2024-01-11T03:19:45;0.00;99.90
25688;DHT22;17407;51.120;3.702;2024-01-11T03:22:12;0.00;99.90
25688;DHT22;17407;51.120;3.702;2024-01-11T03:24:38;0.00;99.90
25688;DHT22;17407;51.120;3.702;2024-01-11T03:27:06;0.00;99.90
25688;DHT22;17407;51.120;3.702;2024-01-11T03:29:32;0.00;99.90
25688;DHT22;17407;51.120;3.702;2024-01-11T03:31:57;0.00;99.90
25688;DHT22;17407;51.120;3.702;2024-01-11T03:34:23;0.10;99.90
25688;DHT22;17407;51.120;3.702;2024-01-11T03:36:49;0.00;99.90
25688;DHT22;17407;51.120;3.702;2024-01-11T03:39:14;0.00;99.90
25688;DHT22;17407;51.120;3.702;2024-01-11T03:41:44;0.00;99.90
25688;DHT22;17407;51.120;3.702;2024-01-11T03:44:10;0.00;99.90
25688;DHT22;17407;51.120;3.702;2024-01-11T03:46:36;0.00;99.90
25688;DHT22;17407;51.120;3.702;2024-01-11T03:49:02;0.00;99.90
25688;DHT22;17407;51.120;3.702;2024-01-11T03:51:27;-0.10;99.90
25688;DHT22;17407;51.120;3.702;2024-01-11T03:53:53;-0.10;99.90
25688;DHT22;17407;51.120;3.702;2024-01-11T03:56:18;-0.10;99.90
25688;DHT22;17407;51.120;3.702;2024-01-11T03:58:45;-0.10;99.90
25688;DHT22;17407;51.120;3.702;2024-01-11T04:01:10;-0.10;99.90
25688;DHT22;17407;51.120;3.702;2024-01-11T04:03:36;-0.10;99.90
25688;DHT22;17407;51.120;3.702;2024-01-11T04:06:03;-0.10;99.90
25688;DHT22;17407;51.120;3.702;2024-01-11T04:08:28;-0.10;99.90
25688;DHT22;17407;51.120;3.702;2024-01-11T04:10:54;-0.10;99.90
25688;DHT22;17407;51.120;3.702;2024-01-11T04:13:20;-0.10;99.90
25688;DHT22;17407;51.120;3.702;2024-01-11T04:15:45;-0.10;99.90
25688;DHT22;17407;51.120;3.702;2024-01-11T04:18:12;0.00;99.90
25688;DHT22;17407;51.120;3.702;2024-01-11T04:20:37;-0.10;99.90
25688;DHT22;17407;51.120;3.702;2024-01-11T04:23:03;-0.10;99.90
25688;DHT22;17407;51.120;3.702;2024-01-11T04:25:28;-0.10;99.90
25688;DHT22;17407;51.120;3.702;2024-01-11T04:27:54;-0.10;99.90
25688;DHT22;17407;51.120;3.702;2024-01-11T04:30:20;-0.10;99.90
25688;DHT22;17407;51.120;3.702;2024-01-11T04:32:45;-0.10;99.90
25688;DHT22;17407;51.120;3.702;2024-01-11T04:35:11;-0.10;99.90
25688;DHT22;17407;51.120;3.702;2024-01-11T04:37:36;-0.10;99.90
25688;DHT22;17407;51.120;3.702;2024-01-11T04:40:03;-0.10;99.90
25688;DHT22;17407;51.120;3.702;2024-01-11T04:42:29;-0.20;99.90
25688;DHT22;17407;51.120;3.702;2024-01-11T04:44:54;-0.20;99.90
25688;DHT22;17407;51.120;3.702;2024-01-11T04:47:20;-0.10;99.90
25688;DHT22;17407;51.120;3.702;2024-01-11T04:49:46;-0.20;99.90
25688;DHT22;17407;51.120;3.702;2024-01-11T04:52:11;-0.20;99.90
25688;DHT22;17407;51.120;3.702;2024-01-11T04:54:37;-0.20;99.90
25688;DHT22;17407;51.120;3.702;2024-01-11T04:57:03;-0.10;99.90
25688;DHT22;17407;51.120;3.702;2024-01-11T04:59:29;-0.20;99.90
25688;DHT22;17407;51.120;3.702;2024-01-11T05:01:55;-0.20;99.90
25688;DHT22;17407;51.120;3.702;2024-01-11T05:04:20;0.00;99.90
25688;DHT22;17407;51.120;3.702;2024-01-11T05:06:46;-0.20;99.90
25688;DHT22;17407;51.120;3.702;2024-01-11T05:09:12;-0.20;99.90
25688;DHT22;17407;51.120;3.702;2024-01-11T05:11:37;-0.20;99.90
25688;DHT22;17407;51.120;3.702;2024-01-11T05:14:03;-0.20;99.90
25688;DHT22;17407;51.120;3.702;2024-01-11T05:16:29;-0.20;99.90
25688;DHT22;17407;51.120;3.702;2024-01-11T05:18:56;-0.20;99.90
25688;DHT22;17407;51.120;3.702;2024-01-11T05:21:22;-0.20;99.90
25688;DHT22;17407;51.120;3.702;2024-01-11T05:23:49;-0.20;99.90
25688;DHT22;17407;51.120;3.702;2024-01-11T05:26:16;-0.20;99.90
25688;DHT22;17407;51.120;3.702;2024-01-11T05:28:42;-0.20;99.90
25688;DHT22;17407;51.120;3.702;2024-01-11T05:31:10;-0.20;99.90
25688;DHT22;17407;51.120;3.702;2024-01-11T05:33:36;-0.20;99.90
25688;DHT22;17407;51.120;3.702;2024-01-11T05:36:02;-0.20;99.90
25688;DHT22;17407;51.120;3.702;2024-01-11T05:38:27;-0.20;99.90
25688;DHT22;17407;51.120;3.702;2024-01-11T05:40:53;-0.20;99.90
25688;DHT22;17407;51.120;3.702;2024-01-11T05:43:19;-0.20;99.90
25688;DHT22;17407;51.120;3.702;2024-01-11T05:45:44;-0.20;99.90
25688;DHT22;17407;51.120;3.702;2024-01-11T05:48:10;-0.20;99.90
25688;DHT22;17407;51.120;3.702;2024-01-11T05:50:36;-0.20;99.90
25688;DHT22;17407;51.120;3.702;2024-01-11T05:53:02;-0.30;99.90
25688;DHT22;17407;51.120;3.702;2024-01-11T05:55:28;-0.30;99.90
25688;DHT22;17407;51.120;3.702;2024-01-11T05:57:54;-0.30;99.90
25688;DHT22;17407;51.120;3.702;2024-01-11T06:00:19;-0.30;99.90
25688;DHT22;17407;51.120;3.702;2024-01-11T06:02:45;-0.30;99.90
25688;DHT22;17407;51.120;3.702;2024-01-11T06:05:11;-0.30;99.90
25688;DHT22;17407;51.120;3.702;2024-01-11T06:07:40;-0.40;99.90
25688;DHT22;17407;51.120;3.702;2024-01-11T06:10:07;-0.40;99.90
25688;DHT22;17407;51.120;3.702;2024-01-11T06:12:34;-0.40;99.90
25688;DHT22;17407;51.120;3.702;2024-01-11T06:15:01;-0.40;99.90
25688;DHT22;17407;51.120;3.702;2024-01-11T06:17:27;-0.40;99.90
25688;DHT22;17407;51.120;3.702;2024-01-11T06:19:52;-0.40;99.90
25688;DHT22;17407;51.120;3.702;2024-01-11T06:22:18;-0.20;99.90
25688;DHT22;17407;51.120;3.702;2024-01-11T06:24:44;-0.40;99.90
25688;DHT22;17407;51.120;3.702;2024-01-11T06:27:09;-0.40;99.90
25688;DHT22;17407;51.120;3.702;2024-01-11T06:29:35;-0.30;99.90
25688;DHT22;17407;51.120;3.702;2024-01-11T06:32:01;-0.30;99.90
25688;DHT22;17407;51.120;3.702;2024-01-11T06:34:27;-0.30;99.90
25688;DHT22;17407;51.120;3.702;2024-01-11T06:36:54;-0.30;99.90
25688;DHT22;17407;51.120;3.702;2024-01-11T06:39:19;-0.30;99.90
25688;DHT22;17407;51.120;3.702;2024-01-11T06:41:45;-0.30;99.90
25688;DHT22;17407;51.120;3.702;2024-01-11T06:44:11;-0.30;99.90
25688;DHT22;17407;51.120;3.702;2024-01-11T06:46:37;-0.30;99.90
25688;DHT22;17407;51.120;3.702;2024-01-11T06:49:05;-0.20;99.90
25688;DHT22;17407;51.120;3.702;2024-01-11T06:51:30;-0.20;99.90
25688;DHT22;17407;51.120;3.702;2024-01-11T06:53:57;-0.20;99.90
25688;DHT22;17407;51.120;3.702;2024-01-11T06:56:22;-0.20;99.90
25688;DHT22;17407;51.120;3.702;2024-01-11T06:58:48;-0.20;99.90
25688;DHT22;17407;51.120;3.702;2024-01-11T07:01:15;-0.20;99.90
25688;DHT22;17407;51.120;3.702;2024-01-11T07:03:40;-0.20;99.90
25688;DHT22;17407;51.120;3.702;2024-01-11T07:06:06;-0.20;99.90
25688;DHT22;17407;51.120;3.702;2024-01-11T07:08:32;-0.20;99.90
25688;DHT22;17407;51.120;3.702;2024-01-11T07:11:00;-0.20;99.90
25688;DHT22;17407;51.120;3.702;2024-01-11T07:13:27;-0.20;99.90
25688;DHT22;17407;51.120;3.702;2024-01-11T07:15:53;-0.20;99.90
25688;DHT22;17407;51.120;3.702;2024-01-11T07:18:21;-0.20;99.90
25688;DHT22;17407;51.120;3.702;2024-01-11T07:20:46;-0.20;99.90
25688;DHT22;17407;51.120;3.702;2024-01-11T07:23:13;-0.20;99.90
25688;DHT22;17407;51.120;3.702;2024-01-11T07:25:39;-0.20;99.90
25688;DHT22;17407;51.120;3.702;2024-01-11T07:28:06;-0.20;99.90
25688;DHT22;17407;51.120;3.702;2024-01-11T07:30:31;-0.20;99.90
25688;DHT22;17407;51.120;3.702;2024-01-11T07:32:57;-0.20;99.90
25688;DHT22;17407;51.120;3.702;2024-01-11T07:35:23;-0.20;99.90
25688;DHT22;17407;51.120;3.702;2024-01-11T07:37:48;-0.20;99.90
25688;DHT22;17407;51.120;3.702;2024-01-11T07:40:15;-0.20;99.90
25688;DHT22;17407;51.120;3.702;2024-01-11T07:42:42;-0.20;99.90
25688;DHT22;17407;51.120;3.702;2024-01-11T07:45:09;-0.20;99.90
25688;DHT22;17407;51.120;3.702;2024-01-11T07:47:39;-0.20;99.90
25688;DHT22;17407;51.120;3.702;2024-01-11T07:50:09;-0.20;99.90
25688;DHT22;17407;51.120;3.702;2024-01-11T07:52:40;-0.20;99.90
25688;DHT22;17407;51.120;3.702;2024-01-11T07:55:07;-0.20;99.90
25688;DHT22;17407;51.120;3.702;2024-01-11T07:57:34;-0.30;99.90
25688;DHT22;17407;51.120;3.702;2024-01-11T08:00:00;-0.30;99.90
25688;DHT22;17407;51.120;3.702;2024-01-11T08:02:26;-0.10;99.90
25688;DHT22;17407;51.120;3.702;2024-01-11T08:04:52;-0.30;99.90
25688;DHT22;17407;51.120;3.702;2024-01-11T08:07:17;-0.30;99.90
25688;DHT22;17407;51.120;3.702;2024-01-11T08:09:43;-0.30;99.90
25688;DHT22;17407;51.120;3.702;2024-01-11T08:12:17;-0.30;99.90
25688;DHT22;17407;51.120;3.702;2024-01-11T08:14:42;-0.30;99.90
25688;DHT22;17407;51.120;3.702;2024-01-11T08:17:09;-0.30;99.90
25688;DHT22;17407;51.120;3.702;2024-01-11T08:19:35;-0.30;99.90
25688;DHT22;17407;51.120;3.702;2024-01-11T08:22:00;-0.30;99.90
25688;DHT22;17407;51.120;3.702;2024-01-11T08:24:26;-0.20;99.90
25688;DHT22;17407;51.120;3.702;2024-01-11T08:26:52;-0.40;99.90
25688;DHT22;17407;51.120;3.702;2024-01-11T08:29:18;-0.40;99.90
25688;DHT22;17407;51.120;3.702;2024-01-11T08:31:51;-0.30;99.90
25688;DHT22;17407;51.120;3.702;2024-01-11T08:34:17;-0.20;99.90
25688;DHT22;17407;51.120;3.702;2024-01-11T08:36:43;-0.40;99.90
25688;DHT22;17407;51.120;3.702;2024-01-11T08:39:08;-0.40;99.90
25688;DHT22;17407;51.120;3.702;2024-01-11T08:41:37;-0.40;99.90
25688;DHT22;17407;51.120;3.702;2024-01-11T08:44:05;-0.40;99.90
25688;DHT22;17407;51.120;3.702;2024-01-11T08:46:31;-0.40;99.90
25688;DHT22;17407;51.120;3.702;2024-01-11T08:48:59;-0.30;99.90
25688;DHT22;17407;51.120;3.702;2024-01-11T08:51:25;-0.30;99.90
25688;DHT22;17407;51.120;3.702;2024-01-11T08:53:51;-0.30;99.90
25688;DHT22;17407;51.120;3.702;2024-01-11T08:56:18;-0.20;99.90
25688;DHT22;17407;51.120;3.702;2024-01-11T08:58:44;-0.10;99.90
25688;DHT22;17407;51.120;3.702;2024-01-11T09:01:10;-0.10;99.90
25688;DHT22;17407;51.120;3.702;2024-01-11T09:03:36;0.00;99.90
25688;DHT22;17407;51.120;3.702;2024-01-11T09:06:05;0.00;99.90
25688;DHT22;17407;51.120;3.702;2024-01-11T09:08:31;0.10;99.90
25688;DHT22;17407;51.120;3.702;2024-01-11T09:10:57;0.10;99.90
25688;DHT22;17407;51.120;3.702;2024-01-11T09:13:24;0.20;99.90
25688;DHT22;17407;51.120;3.702;2024-01-11T09:15:51;0.30;99.90
25688;DHT22;17407;51.120;3.702;2024-01-11T09:18:17;0.30;99.90
25688;DHT22;17407;51.120;3.702;2024-01-11T09:20:43;0.50;99.90
25688;DHT22;17407;51.120;3.702;2024-01-11T09:23:09;0.60;99.90
25688;DHT22;17407;51.120;3.702;2024-01-11T09:25:37;0.80;99.90
25688;DHT22;17407;51.120;3.702;2024-01-11T09:28:03;1.00;99.90
25688;DHT22;17407;51.120;3.702;2024-01-11T09:30:29;1.20;99.90
25688;DHT22;17407;51.120;3.702;2024-01-11T09:32:54;1.30;99.90
25688;DHT22;17407;51.120;3.702;2024-01-11T09:35:22;1.40;99.90
25688;DHT22;17407;51.120;3.702;2024-01-11T09:37:47;1.50;99.90
25688;DHT22;17407;51.120;3.702;2024-01-11T09:40:13;1.50;99.90
25688;DHT22;17407;51.120;3.702;2024-01-11T09:42:39;1.70;99.90
25688;DHT22;17407;51.120;3.702;2024-01-11T09:45:12;1.60;99.90
25688;DHT22;17407;51.120;3.702;2024-01-11T09:47:39;1.70;99.90
25688;DHT22;17407;51.120;3.702;2024-01-11T09:50:05;1.70;99.90
25688;DHT22;17407;51.120;3.702;2024-01-11T09:52:31;1.70;99.90
25688;DHT22;17407;51.120;3.702;2024-01-11T09:55:01;1.60;99.90
25688;DHT22;17407;51.120;3.702;2024-01-11T09:57:31;1.60;99.90
25688;DHT22;17407;51.120;3.702;2024-01-11T09:59:58;1.50;99.90
25688;DHT22;17407;51.120;3.702;2024-01-11T10:02:25;1.40;99.90
25688;DHT22;17407;51.120;3.702;2024-01-11T10:04:52;1.30;99.90
25688;DHT22;17407;51.120;3.702;2024-01-11T10:07:28;1.30;99.90
25688;DHT22;17407;51.120;3.702;2024-01-11T10:09:55;1.30;99.90
25688;DHT22;17407;51.120;3.702;2024-01-11T10:12:21;1.20;99.90
25688;DHT22;17407;51.120;3.702;2024-01-11T10:14:50;1.10;99.90
25688;DHT22;17407;51.120;3.702;2024-01-11T10:17:17;1.10;99.90
25688;DHT22;17407;51.120;3.702;2024-01-11T10:19:43;1.00;99.90
25688;DHT22;17407;51.120;3.702;2024-01-11T10:22:09;0.90;99.90
25688;DHT22;17407;51.120;3.702;2024-01-11T10:24:38;1.10;99.90
25688;DHT22;17407;51.120;3.702;2024-01-11T10:27:04;1.00;99.90
25688;DHT22;17407;51.120;3.702;2024-01-11T10:29:34;0.90;99.90
25688;DHT22;17407;51.120;3.702;2024-01-11T10:32:03;1.00;99.90
25688;DHT22;17407;51.120;3.702;2024-01-11T10:34:29;0.90;99.90
25688;DHT22;17407;51.120;3.702;2024-01-11T10:36:54;1.00;99.90
25688;DHT22;17407;51.120;3.702;2024-01-11T10:39:25;1.00;99.90
25688;DHT22;17407;51.120;3.702;2024-01-11T10:41:56;0.90;99.90
25688;DHT22;17407;51.120;3.702;2024-01-11T10:44:32;0.90;99.90
25688;DHT22;17407;51.120;3.702;2024-01-11T10:46:59;1.10;99.90
25688;DHT22;17407;51.120;3.702;2024-01-11T10:49:27;1.00;99.90
25688;DHT22;17407;51.120;3.702;2024-01-11T10:52:00;1.00;99.90
25688;DHT22;17407;51.120;3.702;2024-01-11T10:54:27;1.30;99.90
25688;DHT22;17407;51.120;3.702;2024-01-11T10:56:54;1.20;99.90
25688;DHT22;17407;51.120;3.702;2024-01-11T10:59:22;1.20;99.90
25688;DHT22;17407;51.120;3.702;2024-01-11T11:01:53;1.20;99.90
25688;DHT22;17407;51.120;3.702;2024-01-11T11:04:22;1.20;99.90
25688;DHT22;17407;51.120;3.702;2024-01-11T11:06:50;1.40;99.90
25688;DHT22;17407;51.120;3.702;2024-01-11T11:09:17;1.40;99.90
25688;DHT22;17407;51.120;3.702;2024-01-11T11:11:45;1.30;99.90
25688;DHT22;17407;51.120;3.702;2024-01-11T11:14:14;1.20;99.90
25688;DHT22;17407;51.120;3.702;2024-01-11T11:16:41;1.30;99.90
25688;DHT22;17407;51.120;3.702;2024-01-11T11:19:07;1.40;99.90
25688;DHT22;17407;51.120;3.702;2024-01-11T11:21:41;1.60;99.90
25688;DHT22;17407;51.120;3.702;2024-01-11T11:24:06;1.50;99.90
25688;DHT22;17407;51.120;3.702;2024-01-11T11:26:32;1.60;99.90
25688;DHT22;17407;51.120;3.702;2024-01-11T11:28:58;1.50;99.90
25688;DHT22;17407;51.120;3.702;2024-01-11T11:31:45;1.70;99.90
25688;DHT22;17407;51.120;3.702;2024-01-11T11:34:19;1.70;99.90
25688;DHT22;17407;51.120;3.702;2024-01-11T11:36:50;1.80;99.90
25688;DHT22;17407;51.120;3.702;2024-01-11T11:39:20;1.70;99.90
25688;DHT22;17407;51.120;3.702;2024-01-11T11:41:46;1.80;99.90
25688;DHT22;17407;51.120;3.702;2024-01-11T11:44:12;1.80;99.90
25688;DHT22;17407;51.120;3.702;2024-01-11T11:46:41;1.80;99.90
25688;DHT22;17407;51.120;3.702;2024-01-11T11:49:07;1.90;99.90
25688;DHT22;17407;51.120;3.702;2024-01-11T11:51:35;2.00;99.90
25688;DHT22;17407;51.120;3.702;2024-01-11T11:54:04;1.90;99.90
25688;DHT22;17407;51.120;3.702;2024-01-11T11:56:30;2.00;99.90
25688;DHT22;17407;51.120;3.702;2024-01-11T11:58:56;2.10;99.90
25688;DHT22;17407;51.120;3.702;2024-01-11T12:01:23;2.20;99.90
25688;DHT22;17407;51.120;3.702;2024-01-11T12:03:48;2.00;99.90
25688;DHT22;17407;51.120;3.702;2024-01-11T12:06:19;2.10;99.90
25688;DHT22;17407;51.120;3.702;2024-01-11T12:08:46;2.10;99.90
25688;DHT22;17407;51.120;3.702;2024-01-11T12:11:21;2.20;99.90
25688;DHT22;17407;51.120;3.702;2024-01-11T12:13:48;2.30;99.90
25688;DHT22;17407;51.120;3.702;2024-01-11T12:16:13;2.30;99.90
25688;DHT22;17407;51.120;3.702;2024-01-11T12:18:40;2.60;99.90
25688;DHT22;17407;51.120;3.702;2024-01-11T12:21:07;2.50;99.90
25688;DHT22;17407;51.120;3.702;2024-01-11T12:23:33;2.50;99.90
25688;DHT22;17407;51.120;3.702;2024-01-11T12:26:03;2.60;99.90
25688;DHT22;17407;51.120;3.702;2024-01-11T12:28:33;2.70;99.90
25688;DHT22;17407;51.120;3.702;2024-01-11T12:30:59;2.70;99.90
25688;DHT22;17407;51.120;3.702;2024-01-11T12:33:26;2.70;99.90
25688;DHT22;17407;51.120;3.702;2024-01-11T12:35:52;3.00;99.90
25688;DHT22;17407;51.120;3.702;2024-01-11T12:38:18;2.90;99.90
25688;DHT22;17407;51.120;3.702;2024-01-11T12:40:46;3.00;99.90
25688;DHT22;17407;51.120;3.702;2024-01-11T12:43:12;3.30;99.90
25688;DHT22;17407;51.120;3.702;2024-01-11T12:45:39;3.40;99.90
25688;DHT22;17407;51.120;3.702;2024-01-11T12:48:07;3.60;99.90
25688;DHT22;17407;51.120;3.702;2024-01-11T12:50:34;3.90;99.90
25688;DHT22;17407;51.120;3.702;2024-01-11T12:55:37;4.20;99.90
25688;DHT22;17407;51.120;3.702;2024-01-11T12:58:07;4.60;99.90
25688;DHT22;17407;51.120;3.702;2024-01-11T13:00:35;4.90;99.90
25688;DHT22;17407;51.120;3.702;2024-01-11T13:03:02;5.20;99.90
25688;DHT22;17407;51.120;3.702;2024-01-11T13:05:28;5.50;99.90
25688;DHT22;17407;51.120;3.702;2024-01-11T13:07:54;6.00;99.90
25688;DHT22;17407;51.120;3.702;2024-01-11T13:10:19;6.40;99.90
25688;DHT22;17407;51.120;3.702;2024-01-11T13:12:45;6.90;99.90
25688;DHT22;17407;51.120;3.702;2024-01-11T13:15:11;7.40;99.90
25688;DHT22;17407;51.120;3.702;2024-01-11T13:17:37;7.90;99.90
25688;DHT22;17407;51.120;3.702;2024-01-11T13:20:03;8.20;99.90
25688;DHT22;17407;51.120;3.702;2024-01-11T13:22:29;8.80;99.90
25688;DHT22;17407;51.120;3.702;2024-01-11T13:24:54;9.10;99.90
25688;DHT22;17407;51.120;3.702;2024-01-11T13:27:20;9.60;99.90
25688;DHT22;17407;51.120;3.702;2024-01-11T13:29:46;10.30;99.80
25688;DHT22;17407;51.120;3.702;2024-01-11T13:32:11;10.60;98.40
25688;DHT22;17407;51.120;3.702;2024-01-11T13:34:37;11.00;97.10
25688;DHT22;17407;51.120;3.702;2024-01-11T13:37:03;11.70;95.20
25688;DHT22;17407;51.120;3.702;2024-01-11T13:39:29;12.10;94.10
25688;DHT22;17407;51.120;3.702;2024-01-11T13:41:55;12.30;93.40
25688;DHT22;17407;51.120;3.702;2024-01-11T13:44:20;12.60;92.60
25688;DHT22;17407;51.120;3.702;2024-01-11T13:46:46;12.90;91.80
25688;DHT22;17407;51.120;3.702;2024-01-11T13:49:12;13.00;91.90
25688;DHT22;17407;51.120;3.702;2024-01-11T13:51:37;13.00;92.70
25688;DHT22;17407;51.120;3.702;2024-01-11T13:54:04;12.80;94.30
25688;DHT22;17407;51.120;3.702;2024-01-11T13:56:30;12.30;96.20
25688;DHT22;17407;51.120;3.702;2024-01-11T13:58:56;11.80;98.30
25688;DHT22;17407;51.120;3.702;2024-01-11T14:01:22;11.30;99.90
25688;DHT22;17407;51.120;3.702;2024-01-11T14:03:47;11.10;99.90
25688;DHT22;17407;51.120;3.702;2024-01-11T14:06:13;10.70;99.90
25688;DHT22;17407;51.120;3.702;2024-01-11T14:08:39;10.60;99.90
25688;DHT22;17407;51.120;3.702;2024-01-11T14:11:06;10.20;99.90
25688;DHT22;17407;51.120;3.702;2024-01-11T14:13:32;9.80;99.90
25688;DHT22;17407;51.120;3.702;2024-01-11T14:15:57;9.60;99.90
25688;DHT22;17407;51.120;3.702;2024-01-11T14:18:23;9.40;99.90
25688;DHT22;17407;51.120;3.702;2024-01-11T14:20:49;9.10;99.90
25688;DHT22;17407;51.120;3.702;2024-01-11T14:23:15;8.60;99.90
25688;DHT22;17407;51.120;3.702;2024-01-11T14:25:41;8.20;99.90
25688;DHT22;17407;51.120;3.702;2024-01-11T14:28:06;7.90;99.90
25688;DHT22;17407;51.120;3.702;2024-01-11T14:30:33;7.40;99.90
25688;DHT22;17407;51.120;3.702;2024-01-11T14:33:00;7.10;99.90
25688;DHT22;17407;51.120;3.702;2024-01-11T14:35:25;6.80;99.90
25688;DHT22;17407;51.120;3.702;2024-01-11T14:37:51;6.60;99.90
25688;DHT22;17407;51.120;3.702;2024-01-11T14:40:18;6.40;99.90
25688;DHT22;17407;51.120;3.702;2024-01-11T14:42:44;6.20;99.90
25688;DHT22;17407;51.120;3.702;2024-01-11T14:45:10;6.30;99.90
25688;DHT22;17407;51.120;3.702;2024-01-11T14:47:35;6.00;99.90
25688;DHT22;17407;51.120;3.702;2024-01-11T14:50:03;5.90;99.90
25688;DHT22;17407;51.120;3.702;2024-01-11T14:52:29;5.70;99.90
25688;DHT22;17407;51.120;3.702;2024-01-11T14:54:56;5.70;99.90
25688;DHT22;17407;51.120;3.702;2024-01-11T14:57:22;5.70;99.90
25688;DHT22;17407;51.120;3.702;2024-01-11T14:59:48;5.60;99.90
25688;DHT22;17407;51.120;3.702;2024-01-11T15:02:14;5.60;99.90
25688;DHT22;17407;51.120;3.702;2024-01-11T15:04:40;5.50;99.90
25688;DHT22;17407;51.120;3.702;2024-01-11T15:07:06;5.40;99.90
25688;DHT22;17407;51.120;3.702;2024-01-11T15:09:35;5.40;99.90
25688;DHT22;17407;51.120;3.702;2024-01-11T15:12:01;5.20;99.90
25688;DHT22;17407;51.120;3.702;2024-01-11T15:14:27;5.20;99.90
25688;DHT22;17407;51.120;3.702;2024-01-11T15:16:53;5.20;99.90
25688;DHT22;17407;51.120;3.702;2024-01-11T15:19:19;5.20;99.90
25688;DHT22;17407;51.120;3.702;2024-01-11T15:21:45;5.10;99.90
25688;DHT22;17407;51.120;3.702;2024-01-11T15:24:11;5.00;99.90
25688;DHT22;17407;51.120;3.702;2024-01-11T15:26:36;5.00;99.90
25688;DHT22;17407;51.120;3.702;2024-01-11T15:29:02;5.00;99.90
25688;DHT22;17407;51.120;3.702;2024-01-11T15:31:28;4.90;99.90
25688;DHT22;17407;51.120;3.702;2024-01-11T15:33:54;4.90;99.90
25688;DHT22;17407;51.120;3.702;2024-01-11T15:36:21;4.80;99.90
25688;DHT22;17407;51.120;3.702;2024-01-11T15:38:48;4.80;99.90